Time;durP1;ratioP1;P1;durP2;ratioP2;P2;SDS_P1;SDS_P2;PMS_P1;PMS_P2;Temp;Humidity;BMP_temperature;BMP_pressure;BME280_temperature;BME280_humidity;BME280_pressure;Samples;Min_cycle;Max_cycle;Signal;HPM_P1;HPM_P2
2022/05/26 00:01:04;;;;;;;8.25;5.25;;;;;;;;;;5005936;28;20038;-67
2022/05/26 00:03:42;;;;;;;5.22;4.80;;;;;;;;;;5018724;28;20022;-67
2022/05/26 00:06:10;;;;;;;5.22;4.80;;;;;;;;;;5010907;28;20041;-67
2022/05/26 00:08:37;;;;;;;7.07;4.88;;;;;;;;;;5017216;28;20045;-67
2022/05/26 00:11:05;;;;;;;5.30;5.00;;;;;;;;;;5020896;28;20041;-67
2022/05/26 00:13:31;;;;;;;5.20;4.90;;;;;;;;;;5021380;28;20400;-67
2022/05/26 00:15:56;;;;;;;5.53;5.03;;;;;;;;;;5016277;28;20033;-67
2022/05/26 00:18:22;;;;;;;5.22;4.90;;;;;;;;;;4996644;28;20152;-66
2022/05/26 00:20:48;;;;;;;9.40;4.95;;;;;;;;;;5017706;28;20033;-67
2022/05/26 00:23:14;;;;;;;5.65;4.70;;;;;;;;;;5014141;28;20710;-67
2022/05/26 00:25:39;;;;;;;5.20;4.70;;;;;;;;;;5020760;28;20041;-67
2022/05/26 00:28:06;;;;;;;4.97;4.68;;;;;;;;;;5019148;28;20333;-67
2022/05/26 00:30:32;;;;;;;4.68;4.47;;;;;;;;;;5009386;28;20092;-67
2022/05/26 00:32:59;;;;;;;4.97;4.60;;;;;;;;;;5009177;28;20504;-67
2022/05/26 00:35:26;;;;;;;4.95;4.55;;;;;;;;;;5017623;28;20037;-67
2022/05/26 00:37:52;;;;;;;5.45;5.00;;;;;;;;;;5022420;28;20108;-68
2022/05/26 00:40:18;;;;;;;5.35;5.05;;;;;;;;;;5015914;28;20117;-67
2022/05/26 00:42:45;;;;;;;6.90;5.30;;;;;;;;;;5014678;28;20057;-66
2022/05/26 00:45:10;;;;;;;5.97;5.10;;;;;;;;;;5017156;28;20041;-67
2022/05/26 00:47:44;;;;;;;4.95;4.65;;;;;;;;;;5021302;28;20099;-67
2022/05/26 00:50:12;;;;;;;5.35;4.95;;;;;;;;;;5010016;28;20046;-67
2022/05/26 00:52:52;;;;;;;5.55;5.05;;;;;;;;;;5008250;28;20030;-67
2022/05/26 00:55:25;;;;;;;5.60;5.10;;;;;;;;;;5004597;28;20037;-67
2022/05/26 00:57:58;;;;;;;6.30;5.10;;;;;;;;;;5012361;28;20512;-67
2022/05/26 01:00:28;;;;;;;5.32;5.03;;;;;;;;;;5012885;28;20034;-67
2022/05/26 01:03:06;;;;;;;5.43;5.03;;;;;;;;;;5016120;28;20431;-67
2022/05/26 01:05:45;;;;;;;5.78;5.10;;;;;;;;;;5015577;28;20042;-67
2022/05/26 01:08:22;;;;;;;5.65;5.15;;;;;;;;;;4999701;28;20041;-66
2022/05/26 01:10:48;;;;;;;7.00;4.90;;;;;;;;;;5012541;28;20034;-66
2022/05/26 01:13:16;;;;;;;4.88;4.68;;;;;;;;;;5014216;28;20083;-66
2022/05/26 01:15:52;;;;;;;6.32;4.97;;;;;;;;;;5014947;28;20109;-67
2022/05/26 01:18:46;;;;;;;5.75;5.05;;;;;;;;;;4997488;28;20038;-67
2022/05/26 01:21:46;;;;;;;5.45;5.05;;;;;;;;;;5011486;28;20033;-66
2022/05/26 01:24:38;;;;;;;5.53;4.95;;;;;;;;;;5008869;28;20660;-66
2022/05/26 01:27:30;;;;;;;5.50;5.10;;;;;;;;;;5010556;28;20037;-67
2022/05/26 01:30:29;;;;;;;5.50;5.13;;;;;;;;;;4993278;28;20048;-67
2022/05/26 01:33:13;;;;;;;5.63;5.20;;;;;;;;;;4986204;28;20500;-66
2022/05/26 01:35:58;;;;;;;5.88;5.47;;;;;;;;;;5011969;28;20037;-67
2022/05/26 01:38:35;;;;;;;8.18;5.43;;;;;;;;;;5020863;28;20037;-67
2022/05/26 01:44:05;;;;;;;5.72;5.25;;;;;;;;;;5028726;28;20107;-65
2022/05/26 01:46:42;;;;;;;6.15;5.60;;;;;;;;;;5029265;28;20041;-65
2022/05/26 01:49:31;;;;;;;5.78;5.30;;;;;;;;;;5057257;28;20626;-65
2022/05/26 01:52:27;;;;;;;6.15;5.65;;;;;;;;;;5031859;28;20504;-65
2022/05/26 01:55:04;;;;;;;5.65;5.20;;;;;;;;;;5029756;28;20032;-65
2022/05/26 01:57:47;;;;;;;5.88;5.47;;;;;;;;;;5032675;28;20036;-65
2022/05/26 02:00:17;;;;;;;6.18;5.78;;;;;;;;;;5036845;28;20515;-65
2022/05/26 02:03:04;;;;;;;5.93;5.60;;;;;;;;;;5026231;28;20599;-65
2022/05/26 02:05:35;;;;;;;7.20;5.50;;;;;;;;;;5036366;28;20124;-65
2022/05/26 02:08:10;;;;;;;6.03;5.63;;;;;;;;;;5042935;28;20112;-64
2022/05/26 02:10:38;;;;;;;6.10;5.60;;;;;;;;;;5033641;28;20037;-64
2022/05/26 02:13:33;;;;;;;6.50;5.85;;;;;;;;;;5037122;28;20739;-65
2022/05/26 02:16:28;;;;;;;6.10;5.50;;;;;;;;;;5043329;28;20480;-64
2022/05/26 02:18:59;;;;;;;6.10;5.63;;;;;;;;;;5023356;28;20041;-64
2022/05/26 02:21:30;;;;;;;6.03;5.55;;;;;;;;;;5036281;28;20124;-64
2022/05/26 02:24:08;;;;;;;6.70;5.25;;;;;;;;;;5045286;28;20503;-64
2022/05/26 02:26:35;;;;;;;6.18;5.60;;;;;;;;;;5034537;28;20500;-65
2022/05/26 02:31:48;;;;;;;5.80;5.30;;;;;;;;;;5034567;28;20120;-64
2022/05/26 02:34:17;;;;;;;6.03;5.63;;;;;;;;;;5034046;28;20033;-65
2022/05/26 02:36:45;;;;;;;6.28;5.78;;;;;;;;;;5028231;28;20037;-64
2022/05/26 02:39:10;;;;;;;6.20;5.70;;;;;;;;;;5025828;28;20061;-64
2022/05/26 02:41:38;;;;;;;6.28;5.75;;;;;;;;;;5030661;28;20037;-64
2022/05/26 02:44:05;;;;;;;6.20;5.80;;;;;;;;;;5045393;28;20028;-64
2022/05/26 02:47:06;;;;;;;10.30;6.35;;;;;;;;;;5036619;28;20041;-65
2022/05/26 02:50:06;;;;;;;8.77;6.07;;;;;;;;;;5034374;28;20047;-65
2022/05/26 02:52:58;;;;;;;6.28;5.88;;;;;;;;;;5030548;28;20033;-64
2022/05/26 02:55:41;;;;;;;6.50;5.90;;;;;;;;;;5027947;28;20033;-64
2022/05/26 02:58:22;;;;;;;6.40;5.90;;;;;;;;;;5033759;28;20037;-64
2022/05/26 03:01:14;;;;;;;5.90;5.40;;;;;;;;;;5031235;28;20040;-64
2022/05/26 03:03:47;;;;;;;5.95;5.55;;;;;;;;;;5021205;28;20045;-64
2022/05/26 03:06:30;;;;;;;6.50;5.97;;;;;;;;;;5055834;28;20038;-64
2022/05/26 03:08:56;;;;;;;6.45;5.75;;;;;;;;;;5027615;28;20463;-64
2022/05/26 03:11:24;;;;;;;5.95;5.45;;;;;;;;;;5030519;28;20040;-64
2022/05/26 03:13:50;;;;;;;6.25;5.70;;;;;;;;;;5035545;28;20679;-64
2022/05/26 03:16:17;;;;;;;6.13;5.43;;;;;;;;;;5029590;28;20029;-63
2022/05/26 03:18:43;;;;;;;5.82;5.47;;;;;;;;;;5031830;28;20148;-63
2022/05/26 03:21:09;;;;;;;6.13;5.63;;;;;;;;;;5036348;28;20080;-63
2022/05/26 03:23:37;;;;;;;5.95;5.43;;;;;;;;;;5028975;28;20044;-63
2022/05/26 03:26:04;;;;;;;7.72;5.88;;;;;;;;;;5032959;28;20033;-63
2022/05/26 03:28:31;;;;;;;6.10;5.50;;;;;;;;;;5040350;28;20056;-61
2022/05/26 03:30:57;;;;;;;5.80;5.40;;;;;;;;;;5035132;28;20516;-62
2022/05/26 03:33:23;;;;;;;6.50;5.88;;;;;;;;;;5028595;28;20462;-64
2022/05/26 03:41:23;;;;;;;5.75;5.30;;;;;;;;;;5022113;28;20041;-63
2022/05/26 03:43:54;;;;;;;6.78;5.53;;;;;;;;;;5035457;28;20029;-63
2022/05/26 03:46:19;;;;;;;6.10;5.60;;;;;;;;;;5025151;28;20159;-62
2022/05/26 03:48:45;;;;;;;6.15;5.28;;;;;;;;;;5034186;28;20112;-63
2022/05/26 03:51:10;;;;;;;9.15;5.80;;;;;;;;;;5035931;28;20036;-64
2022/05/26 03:53:36;;;;;;;7.20;6.50;;;;;;;;;;5027375;28;20029;-63
2022/05/26 03:56:05;;;;;;;5.90;5.40;;;;;;;;;;5029425;28;20488;-63
2022/05/26 03:58:32;;;;;;;6.38;5.90;;;;;;;;;;5028631;28;20120;-63
2022/05/26 04:01:03;;;;;;;5.30;5.00;;;;;;;;;;5028550;28;20037;-63
2022/05/26 04:03:29;;;;;;;5.88;5.40;;;;;;;;;;5023456;28;20059;-63
2022/05/26 04:05:55;;;;;;;5.55;5.10;;;;;;;;;;5032940;28;20505;-63
2022/05/26 04:08:21;;;;;;;5.95;5.50;;;;;;;;;;5028403;28;20136;-63
2022/05/26 04:10:47;;;;;;;5.57;5.18;;;;;;;;;;5027091;28;20041;-64
2022/05/26 04:13:13;;;;;;;5.47;5.07;;;;;;;;;;5036570;28;20694;-61
2022/05/26 04:15:39;;;;;;;5.60;5.20;;;;;;;;;;5029477;28;20500;-63
2022/05/26 04:18:05;;;;;;;5.25;4.95;;;;;;;;;;5028348;28;20476;-64
2022/05/26 04:20:30;;;;;;;5.50;5.18;;;;;;;;;;5029241;28;20072;-64
2022/05/26 04:22:56;;;;;;;5.50;5.07;;;;;;;;;;5032816;28;20037;-63
2022/05/26 04:25:22;;;;;;;5.50;5.00;;;;;;;;;;5028276;28;20041;-64
2022/05/26 04:27:48;;;;;;;5.18;4.85;;;;;;;;;;5028249;28;20034;-60
2022/05/26 04:30:15;;;;;;;5.13;4.82;;;;;;;;;;5024312;28;20064;-62
2022/05/26 04:32:41;;;;;;;5.13;4.82;;;;;;;;;;5028518;28;20044;-62
2022/05/26 04:35:09;;;;;;;6.30;5.25;;;;;;;;;;5028431;28;20041;-62
2022/05/26 04:37:35;;;;;;;5.10;4.80;;;;;;;;;;5028249;28;20041;-59
2022/05/26 04:40:00;;;;;;;5.40;4.90;;;;;;;;;;5018842;28;20099;-63
2022/05/26 04:42:27;;;;;;;5.13;4.82;;;;;;;;;;5025712;28;20033;-63
2022/05/26 04:44:53;;;;;;;5.20;4.75;;;;;;;;;;5036225;28;20381;-64
2022/05/26 04:47:20;;;;;;;5.18;4.80;;;;;;;;;;5020149;28;20095;-64
2022/05/26 04:49:45;;;;;;;5.40;4.90;;;;;;;;;;5029124;28;20037;-63
2022/05/26 04:52:14;;;;;;;4.93;4.63;;;;;;;;;;5041628;28;20387;-63
2022/05/26 04:54:42;;;;;;;7.35;4.70;;;;;;;;;;5032930;28;20580;-62
2022/05/26 04:57:08;;;;;;;5.18;4.78;;;;;;;;;;5029567;28;20040;-63
2022/05/26 04:59:34;;;;;;;4.80;4.50;;;;;;;;;;5035277;28;20037;-64
2022/05/26 05:02:01;;;;;;;5.07;4.78;;;;;;;;;;5027664;28;20091;-61
2022/05/26 05:04:27;;;;;;;6.72;4.72;;;;;;;;;;5027419;28;20124;-64
2022/05/26 05:06:54;;;;;;;5.18;4.85;;;;;;;;;;5032705;28;20121;-64
2022/05/26 05:09:21;;;;;;;5.35;4.90;;;;;;;;;;5031336;28;20079;-64
2022/05/26 05:11:48;;;;;;;5.32;4.97;;;;;;;;;;5027568;28;20106;-63
2022/05/26 05:14:14;;;;;;;5.50;5.03;;;;;;;;;;5026681;28;20037;-64
2022/05/26 05:16:42;;;;;;;5.15;4.82;;;;;;;;;;5018576;28;20051;-64
2022/05/26 05:19:14;;;;;;;5.72;5.30;;;;;;;;;;5021327;28;20040;-64
2022/05/26 05:22:00;;;;;;;5.85;5.38;;;;;;;;;;5021208;28;20040;-62
2022/05/26 05:24:38;;;;;;;5.35;5.05;;;;;;;;;;5040474;28;20075;-64
2022/05/26 05:27:12;;;;;;;6.97;5.90;;;;;;;;;;5026515;28;20037;-64
2022/05/26 05:29:39;;;;;;;5.72;5.32;;;;;;;;;;5027232;28;20711;-64
2022/05/26 05:32:27;;;;;;;5.45;5.15;;;;;;;;;;5026849;28;20029;-63
2022/05/26 05:35:02;;;;;;;5.60;4.97;;;;;;;;;;5035961;28;20037;-64
2022/05/26 05:37:31;;;;;;;5.28;4.88;;;;;;;;;;5020667;28;20033;-64
2022/05/26 05:39:56;;;;;;;4.95;4.72;;;;;;;;;;5033010;28;20036;-65
2022/05/26 05:42:22;;;;;;;5.28;4.97;;;;;;;;;;5029028;28;20108;-62
2022/05/26 05:44:48;;;;;;;5.43;5.00;;;;;;;;;;5026790;28;20064;-64
2022/05/26 05:47:14;;;;;;;5.50;5.00;;;;;;;;;;5025723;28;20060;-63
2022/05/26 05:49:39;;;;;;;5.25;4.72;;;;;;;;;;5036981;28;20026;-62
2022/05/26 05:52:11;;;;;;;5.70;4.85;;;;;;;;;;5027127;28;20539;-62
2022/05/26 05:54:38;;;;;;;5.35;4.97;;;;;;;;;;5026457;28;20068;-64
2022/05/26 05:57:04;;;;;;;6.00;5.07;;;;;;;;;;5028482;28;20299;-62
2022/05/26 05:59:29;;;;;;;6.13;5.10;;;;;;;;;;5036750;28;20061;-61
2022/05/26 06:01:55;;;;;;;5.53;5.22;;;;;;;;;;5009479;28;20459;-62
2022/05/26 06:04:22;;;;;;;5.57;5.20;;;;;;;;;;5026637;28;20584;-64
2022/05/26 06:06:48;;;;;;;5.65;5.30;;;;;;;;;;5036594;28;20037;-64
2022/05/26 06:09:15;;;;;;;5.97;5.43;;;;;;;;;;5030011;28;20037;-62
2022/05/26 06:11:42;;;;;;;5.72;5.30;;;;;;;;;;5025212;28;20664;-62
2022/05/26 06:14:08;;;;;;;5.60;5.20;;;;;;;;;;5032282;28;20039;-64
2022/05/26 06:16:33;;;;;;;6.20;5.60;;;;;;;;;;5032635;28;20049;-62
2022/05/26 06:19:00;;;;;;;6.28;5.78;;;;;;;;;;5030156;28;20550;-62
2022/05/26 06:21:26;;;;;;;6.47;5.30;;;;;;;;;;5033553;28;20038;-62
2022/05/26 06:23:55;;;;;;;5.10;4.90;;;;;;;;;;5033202;28;20155;-64
2022/05/26 06:26:21;;;;;;;5.13;4.82;;;;;;;;;;5030386;28;20041;-63
2022/05/26 06:31:30;;;;;;;5.45;5.03;;;;;;;;;;5038675;28;20380;-64
2022/05/26 06:37:28;;;;;;;5.40;5.00;;;;;;;;;;5035086;28;20408;-63
2022/05/26 06:39:26;;;;;;;5.47;5.07;;;;;;;;;;5019584;28;20423;-64
2022/05/26 06:42:07;;;;;;;5.07;4.75;;;;;;;;;;5031679;28;20124;-64
2022/05/26 06:44:37;;;;;;;5.50;5.20;;;;;;;;;;5037638;28;20037;-62
2022/05/26 06:47:06;;;;;;;5.18;4.78;;;;;;;;;;5030049;28;20099;-63
2022/05/26 06:49:33;;;;;;;5.40;5.00;;;;;;;;;;5024354;28;20124;-64
2022/05/26 06:52:00;;;;;;;5.35;5.05;;;;;;;;;;5038175;28;20042;-64
2022/05/26 06:54:29;;;;;;;6.20;5.18;;;;;;;;;;5042619;28;20043;-64
2022/05/26 06:56:55;;;;;;;5.80;5.20;;;;;;;;;;5029607;28;20487;-64
2022/05/26 06:59:20;;;;;;;5.03;4.72;;;;;;;;;;5033271;28;20042;-64
2022/05/26 07:01:46;;;;;;;5.78;5.43;;;;;;;;;;5032150;28;20033;-64
2022/05/26 07:04:11;;;;;;;5.97;5.47;;;;;;;;;;5028428;28;20140;-64
2022/05/26 07:06:37;;;;;;;5.35;4.95;;;;;;;;;;5035611;28;20060;-64
2022/05/26 07:09:03;;;;;;;5.18;4.78;;;;;;;;;;5029370;28;20094;-64
2022/05/26 07:11:30;;;;;;;4.95;4.50;;;;;;;;;;5029495;28;20552;-64
2022/05/26 07:13:57;;;;;;;5.50;5.00;;;;;;;;;;5037560;28;20029;-64
2022/05/26 07:16:22;;;;;;;5.30;4.90;;;;;;;;;;5031748;28;20045;-65
2022/05/26 07:18:50;;;;;;;5.18;4.80;;;;;;;;;;5028108;28;20397;-65
2022/05/26 07:21:16;;;;;;;5.45;4.63;;;;;;;;;;5037078;28;20029;-64
2022/05/26 07:23:42;;;;;;;5.18;4.78;;;;;;;;;;5029751;28;20030;-64
2022/05/26 07:26:10;;;;;;;4.60;4.30;;;;;;;;;;5027667;28;20026;-64
2022/05/26 07:28:40;;;;;;;5.20;4.80;;;;;;;;;;5028656;28;20120;-63
2022/05/26 07:31:07;;;;;;;4.55;4.22;;;;;;;;;;5028390;28;20045;-63
2022/05/26 07:33:33;;;;;;;5.85;4.20;;;;;;;;;;5030278;28;20029;-65
2022/05/26 07:35:59;;;;;;;4.45;4.20;;;;;;;;;;5028676;28;20103;-64
2022/05/26 07:41:17;;;;;;;4.80;4.40;;;;;;;;;;5035298;28;20037;-65
2022/05/26 07:43:47;;;;;;;5.43;4.30;;;;;;;;;;5025523;28;20037;-64
2022/05/26 07:46:14;;;;;;;4.72;4.35;;;;;;;;;;5036148;28;20086;-62
2022/05/26 07:48:40;;;;;;;4.65;4.28;;;;;;;;;;5028483;28;20033;-63
2022/05/26 07:51:05;;;;;;;4.70;4.30;;;;;;;;;;5029808;28;20060;-63
2022/05/26 07:53:31;;;;;;;4.40;4.10;;;;;;;;;;5029461;28;20048;-61
2022/05/26 07:55:57;;;;;;;4.38;4.10;;;;;;;;;;5027747;28;20657;-63
2022/05/26 07:58:22;;;;;;;7.50;4.70;;;;;;;;;;5028781;28;20044;-63
2022/05/26 08:00:49;;;;;;;5.13;4.63;;;;;;;;;;5028781;28;20061;-66
2022/05/26 08:03:14;;;;;;;4.63;4.30;;;;;;;;;;5027064;28;20065;-61
2022/05/26 08:05:40;;;;;;;5.00;4.70;;;;;;;;;;5032321;28;20065;-62
2022/05/26 08:08:07;;;;;;;4.53;4.13;;;;;;;;;;5036866;28;20044;-62
2022/05/26 08:10:32;;;;;;;4.60;4.30;;;;;;;;;;5034515;28;20044;-69
2022/05/26 08:12:58;;;;;;;4.90;4.45;;;;;;;;;;5035383;28;20101;-67
2022/05/26 08:15:24;;;;;;;4.65;4.25;;;;;;;;;;5028799;28;20076;-67
2022/05/26 08:17:50;;;;;;;5.00;4.68;;;;;;;;;;5028101;28;20120;-67
2022/05/26 08:20:15;;;;;;;4.40;4.20;;;;;;;;;;5029353;28;20037;-63
2022/05/26 08:22:41;;;;;;;4.65;4.35;;;;;;;;;;5031791;28;20044;-64
2022/05/26 08:25:09;;;;;;;4.85;4.50;;;;;;;;;;5027325;28;20068;-64
2022/05/26 08:27:35;;;;;;;4.70;4.43;;;;;;;;;;5031596;28;20073;-63
2022/05/26 08:30:00;;;;;;;4.90;4.50;;;;;;;;;;5030953;28;20508;-63
2022/05/26 08:32:27;;;;;;;4.82;4.43;;;;;;;;;;5028113;28;20036;-64
2022/05/26 08:35:05;;;;;;;4.80;4.47;;;;;;;;;;5027837;28;20416;-63
2022/05/26 08:37:31;;;;;;;5.57;5.18;;;;;;;;;;5035560;28;20037;-64
2022/05/26 08:39:57;;;;;;;5.20;4.90;;;;;;;;;;5030746;28;20049;-64
2022/05/26 08:42:22;;;;;;;4.93;4.63;;;;;;;;;;5027495;28;20040;-64
2022/05/26 08:44:49;;;;;;;5.20;4.80;;;;;;;;;;5012499;28;20143;-64
2022/05/26 08:47:20;;;;;;;4.82;4.43;;;;;;;;;;5038225;28;20033;-64
2022/05/26 08:50:09;;;;;;;4.65;4.30;;;;;;;;;;5027490;28;20033;-63
2022/05/26 08:52:42;;;;;;;5.80;5.23;;;;;;;;;;5027587;28;20033;-64
2022/05/26 08:55:23;;;;;;;4.82;4.53;;;;;;;;;;5028359;28;20303;-63
2022/05/26 08:58:07;;;;;;;4.90;4.50;;;;;;;;;;5026648;28;20048;-63
2022/05/26 09:00:35;;;;;;;4.65;4.25;;;;;;;;;;5025333;28;20568;-63
2022/05/26 09:03:01;;;;;;;5.03;4.50;;;;;;;;;;5029346;28;20120;-63
2022/05/26 09:05:37;;;;;;;4.78;4.47;;;;;;;;;;5029386;28;20477;-63
2022/05/26 09:13:50;;;;;;;4.15;3.95;;;;;;;;;;5031385;28;20581;-63
2022/05/26 09:16:16;;;;;;;4.47;4.28;;;;;;;;;;5032358;28;20116;-62
2022/05/26 09:18:43;;;;;;;4.70;4.30;;;;;;;;;;5025921;28;20647;-63
2022/05/26 09:21:33;;;;;;;5.75;4.50;;;;;;;;;;5027305;28;20095;-63
2022/05/26 09:24:26;;;;;;;4.78;4.40;;;;;;;;;;5031508;28;20033;-63
2022/05/26 09:26:55;;;;;;;4.50;4.20;;;;;;;;;;5020126;28;20037;-63
2022/05/26 09:29:29;;;;;;;4.70;4.40;;;;;;;;;;5025282;28;20045;-63
2022/05/26 09:31:56;;;;;;;5.20;4.90;;;;;;;;;;5021838;28;20037;-63
2022/05/26 09:34:34;;;;;;;5.38;5.07;;;;;;;;;;5028169;28;20037;-62
2022/05/26 09:37:03;;;;;;;5.00;4.63;;;;;;;;;;5026290;28;20128;-63
2022/05/26 09:39:37;;;;;;;4.90;4.60;;;;;;;;;;5025445;28;20037;-63
2022/05/26 09:42:16;;;;;;;5.30;4.90;;;;;;;;;;5025209;28;20041;-63
2022/05/26 09:44:54;;;;;;;5.43;5.00;;;;;;;;;;5021496;28;20554;-65
2022/05/26 09:47:41;;;;;;;5.78;5.40;;;;;;;;;;5029080;28;20033;-63
2022/05/26 09:50:10;;;;;;;5.55;5.07;;;;;;;;;;5032885;28;20045;-63
2022/05/26 09:52:45;;;;;;;5.60;5.20;;;;;;;;;;5038163;28;20039;-63
2022/05/26 09:55:26;;;;;;;4.97;4.68;;;;;;;;;;5022971;28;20068;-63
2022/05/26 09:58:06;;;;;;;5.50;5.20;;;;;;;;;;5035866;28;20033;-63
2022/05/26 10:00:47;;;;;;;5.28;4.82;;;;;;;;;;5028839;28;20129;-63
2022/05/26 10:03:30;;;;;;;5.25;4.95;;;;;;;;;;5028077;28;20041;-64
2022/05/26 10:06:15;;;;;;;7.07;5.47;;;;;;;;;;5030177;28;20479;-63
2022/05/26 10:09:13;;;;;;;5.10;4.80;;;;;;;;;;5029494;28;20037;-62
2022/05/26 10:12:07;;;;;;;5.30;5.00;;;;;;;;;;5044408;28;20040;-62
2022/05/26 10:14:41;;;;;;;5.10;4.80;;;;;;;;;;5032144;28;20049;-63
2022/05/26 10:17:19;;;;;;;5.10;4.70;;;;;;;;;;5028431;28;20040;-63
2022/05/26 10:20:18;;;;;;;5.03;4.72;;;;;;;;;;5028458;28;20052;-63
2022/05/26 10:22:53;;;;;;;5.30;4.90;;;;;;;;;;5023892;28;20120;-62
2022/05/26 10:25:25;;;;;;;4.90;4.60;;;;;;;;;;5027575;28;20037;-62
2022/05/26 10:27:51;;;;;;;4.95;4.50;;;;;;;;;;5028166;28;20041;-63
2022/05/26 10:30:20;;;;;;;4.75;4.45;;;;;;;;;;5027464;28;20094;-63
2022/05/26 10:33:12;;;;;;;5.00;4.45;;;;;;;;;;5033000;28;20033;-63
2022/05/26 10:35:52;;;;;;;5.00;4.60;;;;;;;;;;5028340;28;20033;-63
2022/05/26 10:38:24;;;;;;;5.18;4.40;;;;;;;;;;5024536;28;20037;-63
2022/05/26 10:41:34;;;;;;;4.93;4.57;;;;;;;;;;5040403;28;20036;-62
2022/05/26 10:44:10;;;;;;;4.50;4.20;;;;;;;;;;5027482;28;20150;-62
2022/05/26 10:46:41;;;;;;;4.75;4.38;;;;;;;;;;5029478;28;20048;-62
2022/05/26 10:49:16;;;;;;;4.95;4.65;;;;;;;;;;5029455;28;20036;-63
2022/05/26 10:52:13;;;;;;;4.90;4.50;;;;;;;;;;5034698;28;20432;-62
2022/05/26 10:54:58;;;;;;;5.10;4.40;;;;;;;;;;5021798;28;20552;-63
2022/05/26 10:57:29;;;;;;;5.70;4.57;;;;;;;;;;5025997;28;20568;-61
2022/05/26 11:00:08;;;;;;;5.25;4.55;;;;;;;;;;5026670;28;20037;-62
2022/05/26 11:02:53;;;;;;;;;;;;;;;;;;5028657;28;20061;-62
2022/05/26 11:05:34;;;;;;;4.38;4.18;;;;;;;;;;5028211;28;19917;-62
2022/05/26 11:08:18;;;;;;;4.65;4.35;;;;;;;;;;5029917;28;20504;-62
2022/05/26 11:11:13;;;;;;;4.57;4.28;;;;;;;;;;5028175;28;20029;-62
2022/05/26 11:13:39;;;;;;;4.50;4.30;;;;;;;;;;4946776;28;20082;-62
2022/05/26 11:19:15;;;;;;;4.65;4.38;;;;;;;;;;4952824;28;20047;-62
2022/05/26 11:21:41;;;;;;;5.20;4.80;;;;;;;;;;4947084;29;20576;-62
2022/05/26 11:24:10;;;;;;;5.00;4.60;;;;;;;;;;4950375;28;20043;-61
2022/05/26 11:26:41;;;;;;;;;;;;;;;;;;4948898;28;20051;-63
2022/05/26 11:29:28;;;;;;;4.90;4.43;;;;;;;;;;4947873;28;19922;-63
2022/05/26 11:38:28;;;;;;;4.85;4.47;;;;;;;;;;4939834;29;20039;-63
2022/05/26 11:41:14;;;;;;;4.82;4.45;;;;;;;;;;4939230;29;20109;-63
2022/05/26 11:43:43;;;;;;;4.63;4.32;;;;;;;;;;4937637;28;20051;-63
2022/05/26 11:46:11;;;;;;;5.40;5.00;;;;;;;;;;4950429;28;20043;-63
2022/05/26 11:48:43;;;;;;;4.63;4.32;;;;;;;;;;4946749;28;20039;-62
2022/05/26 11:51:12;;;;;;;5.07;4.68;;;;;;;;;;5008730;28;20045;-63
2022/05/26 11:53:48;;;;;;;5.00;4.70;;;;;;;;;;5030991;28;20033;-63
2022/05/26 11:59:26;;;;;;;4.50;4.13;;;;;;;;;;5027677;28;20051;-62
2022/05/26 12:02:00;;;;;;;4.50;4.30;;;;;;;;;;5027904;28;20082;-62
2022/05/26 12:04:38;;;;;;;5.30;4.90;;;;;;;;;;5013527;28;20426;-63
2022/05/26 12:07:14;;;;;;;4.70;4.40;;;;;;;;;;5026496;28;20123;-63
2022/05/26 12:09:46;;;;;;;5.68;4.60;;;;;;;;;;5024358;28;20060;-62
2022/05/26 12:12:17;;;;;;;4.85;4.50;;;;;;;;;;5031789;28;20037;-62
2022/05/26 12:14:46;;;;;;;4.70;4.40;;;;;;;;;;5025992;28;20129;-63
2022/05/26 12:17:30;;;;;;;4.35;4.05;;;;;;;;;;5022830;28;20049;-63
2022/05/26 12:20:03;;;;;;;4.90;4.40;;;;;;;;;;5029181;28;20068;-63
2022/05/26 12:22:31;;;;;;;4.82;4.45;;;;;;;;;;5026119;28;20061;-63
2022/05/26 12:25:01;;;;;;;4.85;4.55;;;;;;;;;;5023099;28;20055;-63
2022/05/26 12:27:53;;;;;;;4.90;4.50;;;;;;;;;;5033596;28;20049;-63
2022/05/26 12:30:43;;;;;;;5.28;4.78;;;;;;;;;;5023977;28;20072;-63
2022/05/26 12:33:18;;;;;;;4.78;4.47;;;;;;;;;;5023829;28;20115;-63
2022/05/26 12:36:11;;;;;;;4.70;4.40;;;;;;;;;;5031002;28;20513;-63
2022/05/26 12:39:15;;;;;;;4.80;4.40;;;;;;;;;;5025563;28;20119;-63
2022/05/26 12:41:53;;;;;;;5.40;4.47;;;;;;;;;;5026637;28;20045;-63
2022/05/26 12:44:38;;;;;;;4.30;4.00;;;;;;;;;;5026949;28;20037;-62
2022/05/26 12:47:22;;;;;;;4.85;4.45;;;;;;;;;;5029729;28;20042;-62
2022/05/26 12:50:03;;;;;;;4.88;4.47;;;;;;;;;;5025918;28;20043;-63
2022/05/26 12:52:38;;;;;;;4.35;4.15;;;;;;;;;;5024243;28;20072;-63
2022/05/26 12:55:21;;;;;;;4.63;4.38;;;;;;;;;;5027618;28;20396;-62
2022/05/26 12:58:02;;;;;;;4.80;4.43;;;;;;;;;;5024053;28;20501;-63
2022/05/26 13:00:48;;;;;;;5.22;4.70;;;;;;;;;;5024631;28;20032;-63
2022/05/26 13:03:23;;;;;;;4.60;4.30;;;;;;;;;;5032981;28;20078;-63
2022/05/26 13:06:10;;;;;;;4.80;4.50;;;;;;;;;;5008772;28;20045;-63
2022/05/26 13:08:52;;;;;;;4.72;4.40;;;;;;;;;;5026416;28;20037;-62
2022/05/26 13:11:25;;;;;;;4.63;4.22;;;;;;;;;;5026781;28;20057;-63
2022/05/26 13:14:33;;;;;;;4.53;4.18;;;;;;;;;;5024700;28;20045;-63
2022/05/26 13:17:22;;;;;;;4.13;3.92;;;;;;;;;;5021369;28;20751;-63
2022/05/26 13:19:56;;;;;;;4.78;4.40;;;;;;;;;;5034882;28;20103;-63
2022/05/26 13:22:35;;;;;;;4.60;4.20;;;;;;;;;;5018912;28;20056;-63
2022/05/26 13:25:00;;;;;;;;;;;;;;;;;;5026575;28;20041;-63
2022/05/26 13:27:39;;;;;;;4.25;4.03;;;;;;;;;;5009055;28;20257;-63
2022/05/26 13:33:07;;;;;;;4.40;4.07;;;;;;;;;;5028326;28;20543;-63
2022/05/26 13:35:37;;;;;;;3.92;3.70;;;;;;;;;;5033827;28;20041;-63
2022/05/26 13:38:03;;;;;;;5.25;4.07;;;;;;;;;;5029047;28;20045;-63
2022/05/26 13:40:29;;;;;;;5.18;4.25;;;;;;;;;;5032779;28;20114;-63
2022/05/26 13:42:55;;;;;;;4.43;4.13;;;;;;;;;;5029043;28;20060;-63
2022/05/26 13:45:31;;;;;;;4.50;4.20;;;;;;;;;;5030996;28;20033;-63
2022/05/26 13:48:35;;;;;;;5.47;4.55;;;;;;;;;;5034563;28;20045;-63
2022/05/26 13:51:04;;;;;;;4.97;4.57;;;;;;;;;;5023309;28;20736;-63
2022/05/26 13:53:32;;;;;;;5.15;4.75;;;;;;;;;;5030260;28;20088;-63
2022/05/26 13:56:04;;;;;;;4.63;4.32;;;;;;;;;;5012017;28;20033;-63
2022/05/26 13:58:31;;;;;;;5.35;4.50;;;;;;;;;;5023355;28;20033;-64
2022/05/26 14:00:59;;;;;;;4.63;4.20;;;;;;;;;;5029389;28;20035;-63
2022/05/26 14:03:31;;;;;;;7.57;4.50;;;;;;;;;;5031872;28;20556;-64
2022/05/26 14:06:08;;;;;;;4.97;4.57;;;;;;;;;;5028872;28;20400;-64
2022/05/26 14:08:55;;;;;;;4.82;4.53;;;;;;;;;;5028918;28;20995;-63
2022/05/26 14:11:43;;;;;;;4.78;4.35;;;;;;;;;;5031396;28;20496;-64
2022/05/26 14:14:29;;;;;;;5.63;4.40;;;;;;;;;;5032000;28;20033;-64
2022/05/26 14:16:59;;;;;;;5.00;4.60;;;;;;;;;;5023902;28;20345;-63
2022/05/26 14:19:31;;;;;;;5.25;4.85;;;;;;;;;;5028220;28;20086;-64
2022/05/26 14:21:56;;;;;;;5.10;4.65;;;;;;;;;;5030077;28;20096;-63
2022/05/26 14:24:41;;;;;;;7.15;4.50;;;;;;;;;;5024398;28;20484;-63
2022/05/26 14:27:30;;;;;;;5.45;5.05;;;;;;;;;;5030276;28;20496;-63
2022/05/26 14:30:21;;;;;;;7.25;5.70;;;;;;;;;;5010080;28;20045;-63
2022/05/26 14:32:47;;;;;;;5.00;4.60;;;;;;;;;;5028033;28;20034;-63
2022/05/26 14:35:15;;;;;;;7.53;5.10;;;;;;;;;;5029482;28;20035;-63
2022/05/26 14:37:41;;;;;;;5.95;4.30;;;;;;;;;;5029234;28;20037;-64
2022/05/26 14:40:07;;;;;;;5.05;4.57;;;;;;;;;;5033906;28;20037;-63
2022/05/26 14:42:36;;;;;;;4.95;4.50;;;;;;;;;;5028890;28;20041;-63
2022/05/26 14:45:05;;;;;;;4.88;4.57;;;;;;;;;;5036040;28;20044;-63
2022/05/26 14:47:31;;;;;;;4.90;4.60;;;;;;;;;;5027958;28;20131;-63
2022/05/26 14:49:57;;;;;;;5.00;4.60;;;;;;;;;;5028132;28;20595;-63
2022/05/26 14:52:28;;;;;;;5.10;4.80;;;;;;;;;;5029635;28;20481;-63
2022/05/26 14:57:38;;;;;;;4.88;4.53;;;;;;;;;;5027013;28;20018;-60
2022/05/26 15:00:15;;;;;;;4.15;3.95;;;;;;;;;;5042247;28;20045;-63
2022/05/26 15:02:41;;;;;;;6.30;4.30;;;;;;;;;;5031662;28;20068;-63
2022/05/26 15:05:09;;;;;;;4.93;4.43;;;;;;;;;;5012754;28;20103;-63
2022/05/26 15:07:36;;;;;;;4.30;4.00;;;;;;;;;;5028156;28;20037;-63
2022/05/26 15:10:03;;;;;;;4.75;4.30;;;;;;;;;;5027926;28;20659;-63
2022/05/26 15:12:28;;;;;;;4.50;4.10;;;;;;;;;;5033658;28;20041;-63
2022/05/26 15:14:54;;;;;;;4.80;4.40;;;;;;;;;;5026758;28;20041;-63
2022/05/26 15:17:22;;;;;;;4.30;3.90;;;;;;;;;;5025655;28;20061;-64
2022/05/26 15:19:51;;;;;;;4.65;4.30;;;;;;;;;;5034126;28;20044;-63
2022/05/26 15:22:18;;;;;;;5.90;4.45;;;;;;;;;;5029819;28;20052;-63
2022/05/26 15:24:45;;;;;;;4.40;4.07;;;;;;;;;;5026666;28;20033;-62
2022/05/26 15:27:12;;;;;;;4.63;4.25;;;;;;;;;;5023581;28;20673;-63
2022/05/26 15:29:38;;;;;;;4.72;4.35;;;;;;;;;;5029313;28;20116;-63
2022/05/26 15:32:09;;;;;;;4.32;4.13;;;;;;;;;;5029304;28;20124;-63
2022/05/26 15:34:36;;;;;;;4.85;4.40;;;;;;;;;;5026572;28;20041;-63
2022/05/26 15:37:06;;;;;;;6.00;5.50;;;;;;;;;;5027567;28;20538;-63
2022/05/26 15:39:32;;;;;;;5.00;4.50;;;;;;;;;;5030736;28;20072;-60
2022/05/26 15:41:58;;;;;;;4.90;4.50;;;;;;;;;;5013051;28;20061;-63
2022/05/26 15:44:24;;;;;;;4.47;4.18;;;;;;;;;;5027576;28;20041;-63
2022/05/26 15:46:53;;;;;;;5.03;4.63;;;;;;;;;;5027301;28;20049;-63
2022/05/26 15:49:23;;;;;;;4.53;4.17;;;;;;;;;;5022731;28;20479;-63
2022/05/26 15:51:50;;;;;;;4.40;4.00;;;;;;;;;;5034966;28;20060;-63
2022/05/26 15:54:27;;;;;;;4.57;4.28;;;;;;;;;;5037444;28;20032;-62
2022/05/26 15:56:55;;;;;;;5.25;4.80;;;;;;;;;;5031554;28;20041;-62
2022/05/26 15:59:25;;;;;;;4.50;4.10;;;;;;;;;;5039360;28;20033;-63